Latest Weather Observations for Lord Howe Island

IDN60801

Issued at 7:05 pm EST Thursday 18 September 2014 (issued every 30 minutes, with the page automatically refreshed every 10 minutes)

About weather observations | Map of weather stations | Latest weather observations for NSW | Other Formats
Station Details ID: 200839 Name: LORD HOWE ISLAND AERO Lat: -31.54 Lon: 159.08 Height: 5.0 m
Data from the previous 72 hours. | See also: Recent months at Lord Howe Island
Date/Time
EST
Temp
°C
App
Temp
°C
Dew
Point
Rel
Hum
%
Delta-T
°C
Wind Press
QNH
hPa
Press
MSL
hPa
Rain
since 9 am
mm
Dir
 
Spd
km/h
Gust
km/h
Spd
kts
Gust
kts
18/07:00pm 17.3 13.2 8.8 57 4.4 SW 20 35 11 19 1016.5 - 0.2
18/06:30pm 16.5 13.6 10.9 69 3.0 SSW 17 24 9 13 1016.4 - 0.2
18/06:00pm 16.7 12.7 9.2 61 3.9 SSW 20 32 11 17 1015.9 - 0.2
18/05:30pm 16.9 13.3 10.5 66 3.4 SSW 20 35 11 19 1015.6 1015.6 0.2
18/05:00pm 17.1 13.4 9.4 60 4.0 SW 19 30 10 16 1015.1 - 0.2
18/04:30pm 17.3 13.2 10.1 62 3.8 SW 22 35 12 19 1014.8 - 0.2
18/04:00pm 17.5 13.3 11.0 65 3.5 SW 24 39 13 21 1014.3 - 0.2
18/03:30pm 17.9 12.0 11.3 65 3.6 SW 33 46 18 25 1013.8 - 0.2
18/03:00pm 18.4 12.3 11.9 66 3.6 SW 35 46 19 25 1013.3 - 0.2
18/02:30pm 19.1 11.5 9.2 52 5.2 WSW 39 46 21 25 1013.2 1013.2 0.2
18/02:00pm 19.3 12.6 9.5 53 5.2 WSW 35 44 19 24 1013.2 - 0.2
18/01:30pm 18.9 13.1 9.6 54 4.9 WSW 30 37 16 20 1013.5 - 0.2
18/01:00pm 19.3 14.0 9.7 53 5.1 WSW 28 35 15 19 1013.6 - 0.2
18/12:30pm 18.8 12.7 10.6 59 4.4 WSW 33 41 18 22 1014.1 - 0.2
18/12:00pm 19.3 13.5 10.8 58 4.6 WSW 32 37 17 20 1014.3 - 0.2
18/11:30am 19.9 14.8 10.7 55 5.0 W 28 32 15 17 1014.6 1014.6 0.2
18/11:00am 18.4 13.7 11.9 66 3.6 WSW 28 33 15 18 1015.1 - 0.2
18/10:30am 18.0 12.4 11.4 65 3.6 WSW 32 39 17 21 1015.5 - 0.2
18/10:00am 17.2 12.0 10.4 64 3.6 WSW 28 35 15 19 1015.8 - 0.2
18/09:30am 16.9 11.8 10.7 67 3.3 SW 28 39 15 21 1015.8 - 0.0
18/09:00am 17.5 11.1 10.8 65 3.6 SW 35 48 19 26 1015.4 - 0.0
18/08:51am 18.0 12.0 10.7 62 3.9 WSW 33 44 18 24 1015.6 - 0.0
18/08:30am 19.1 15.9 8.5 50 5.5 WNW 15 24 8 13 1015.1 1015.1 0.0
18/08:00am 18.0 12.4 8.7 54 4.8 W 28 39 15 21 1015.6 - 0.0
18/07:30am 18.5 14.1 9.1 54 4.9 WSW 22 30 12 16 1015.5 - 0.0
18/07:00am 19.0 15.2 9.1 52 5.2 WSW 19 22 10 12 1014.8 - 0.0
18/06:30am 18.5 14.7 9.8 57 4.6 WSW 20 26 11 14 1014.6 - 0.0
18/06:00am 18.3 14.2 10.2 59 4.3 WSW 22 28 12 15 1014.3 - 0.0
18/05:30am 18.3 14.1 9.8 57 4.5 WSW 22 30 12 16 1014.5 1014.5 0.0
18/05:00am 18.3 13.2 9.3 55 4.7 WSW 26 35 14 19 1014.0 - 0.0
18/04:30am 18.3 13.1 10.2 59 4.3 WSW 28 35 15 19 1013.9 - 0.0
18/04:00am 18.3 13.6 10.5 60 4.2 WSW 26 35 14 19 1013.5 - 0.0
18/03:30am 18.5 12.6 10.3 59 4.4 WSW 32 39 17 21 1013.3 - 0.0
18/03:00am 18.6 12.9 11.3 62 4.0 W 32 39 17 21 1013.4 - 0.0
18/02:30am 18.1 13.5 12.3 69 3.2 W 28 33 15 18 1013.3 1013.3 0.0
18/02:00am 18.2 13.3 11.4 64 3.7 W 28 32 15 17 1013.3 - 0.0
18/01:30am 18.2 13.4 11.6 65 3.6 W 28 33 15 18 1013.4 - 0.0
18/01:00am 18.3 14.0 11.9 66 3.5 W 26 32 14 17 1013.5 - 0.0
18/12:30am 18.2 15.3 12.8 71 3.0 WSW 20 28 11 15 1013.5 - 0.0
18/12:00am 18.7 13.9 11.8 64 3.8 WSW 28 35 15 19 1013.7 - 0.0
 
Date/Time
EST
Temp
°C
App
Temp
°C
Dew
Point
Rel
Hum
%
Delta-T
°C
Wind Press
QNH
hPa
Press
MSL
hPa
Rain
since 9 am
mm
Dir
 
Spd
km/h
Gust
km/h
Spd
kts
Gust
kts
17/11:30pm 18.7 14.0 12.0 65 3.7 W 28 32 15 17 1014.0 1014.0 0.0
17/11:00pm 18.6 14.1 11.5 63 3.9 W 26 32 14 17 1013.9 - 0.0
17/10:30pm 18.6 13.7 11.3 62 4.0 WSW 28 33 15 18 1013.9 - 0.0
17/10:00pm 18.7 13.9 11.6 63 3.9 WSW 28 33 15 18 1014.0 - 0.0
17/09:30pm 18.7 13.8 11.4 62 4.0 WSW 28 35 15 19 1014.0 - 0.0
17/09:00pm 18.9 13.5 11.0 60 4.3 WSW 30 35 16 19 1013.9 - 0.0
17/08:30pm 18.8 14.4 11.7 63 3.9 WSW 26 32 14 17 1013.8 1013.8 0.0
17/08:00pm 18.9 13.8 10.5 58 4.5 WSW 28 35 15 19 1013.7 - 0.0
17/07:30pm 18.9 14.0 11.2 61 4.2 WSW 28 32 15 17 1013.5 - 0.0
17/07:00pm 19.0 14.0 11.1 60 4.3 WSW 28 32 15 17 1013.2 - 0.0
17/06:30pm 18.9 14.5 11.6 62 4.0 WSW 26 30 14 16 1012.8 - 0.0
17/06:00pm 19.1 14.2 11.2 60 4.3 WSW 28 32 15 17 1012.4 - 0.0
17/05:30pm 19.1 14.9 12.3 64 3.8 WSW 26 32 14 17 1012.0 1012.0 0.0
17/05:00pm 19.3 15.2 12.7 65 3.7 WSW 26 30 14 16 1011.8 - 0.0
17/04:30pm 19.6 15.9 12.7 64 3.9 WSW 24 30 13 16 1011.6 - 0.0
17/04:00pm 20.0 16.5 13.3 65 3.8 WSW 24 30 13 16 1011.2 - 0.0
17/03:30pm 20.1 16.8 13.9 67 3.6 WSW 24 32 13 17 1010.9 - 0.0
17/03:00pm 20.4 17.0 14.8 70 3.3 WSW 26 32 14 17 1010.8 - 0.0
17/02:30pm 20.6 17.6 14.8 69 3.4 WSW 24 30 13 16 1010.7 1010.7 0.0
17/02:00pm 20.6 17.0 15.2 71 3.2 WSW 28 32 15 17 1010.8 - 0.0
17/01:30pm 20.9 17.8 15.5 71 3.2 WSW 26 32 14 17 1010.9 - 0.0
17/01:00pm 20.9 18.0 15.2 70 3.4 WSW 24 28 13 15 1011.1 - 0.0
17/12:30pm 20.8 17.9 15.0 69 3.4 WSW 24 28 13 15 1011.3 - 0.0
17/12:00pm 20.8 18.4 16.3 75 2.7 WSW 24 28 13 15 1011.3 - 0.0
17/11:30am 20.7 18.0 16.6 77 2.5 WSW 26 32 14 17 1011.5 1011.5 0.0
17/11:00am 22.1 19.7 16.5 70 3.4 W 24 33 13 18 1011.8 - 0.0
17/10:30am 21.5 18.9 15.8 70 3.4 W 24 35 13 19 1012.0 - 0.0
17/10:00am 20.9 17.2 16.1 74 2.9 W 30 43 16 23 1012.4 - 0.0
17/09:30am 20.2 16.8 15.8 76 2.6 W 28 39 15 21 1012.4 - 0.0
17/09:00am 20.9 18.6 16.6 76 2.6 NW 24 46 13 25 1012.8 - 0.0
17/08:30am 20.5 18.4 16.3 77 2.5 NNW 22 44 12 24 1013.1 1013.1 9.8
17/08:20am 20.3 18.0 16.7 80 2.2 NNW 24 46 13 25 1013.0 - 9.8
17/08:00am 19.9 18.4 16.8 82 1.9 NNW 20 39 11 21 1012.9 - 9.8
17/07:30am 19.8 18.3 16.3 80 2.1 NW 19 37 10 20 1013.0 - 9.8
17/07:00am 19.4 17.8 15.9 80 2.1 NNW 19 28 10 15 1012.8 - 9.8
17/06:30am 19.1 18.7 16.1 83 1.8 N 13 26 7 14 1012.6 - 9.8
17/06:00am 19.0 17.8 16.1 83 1.7 N 17 24 9 13 1013.1 - 9.0
17/05:30am 19.0 18.1 15.8 82 1.9 N 15 28 8 15 1013.4 1013.4 8.6
17/05:00am 18.6 18.9 16.1 85 1.5 NE 9 15 5 8 1013.2 - 8.6
17/04:30am 17.7 17.2 14.8 83 1.7 NNE 11 24 6 13 1013.1 - 8.6
17/04:00am 17.8 17.4 15.2 85 1.5 NNE 11 24 6 13 1012.8 - 8.6
17/03:52am 17.4 17.4 15.3 87 1.2 N 9 19 5 10 1013.3 - 8.6
17/03:50am 17.4 17.5 15.5 89 1.1 N 9 19 5 10 1013.4 - 8.6
17/03:30am 16.9 16.6 15.4 91 0.9 N 11 22 6 12 1013.1 - 8.2
17/03:23am 17.4 17.0 15.2 87 1.3 N 11 19 6 10 1013.3 - 3.0
17/03:20am 17.4 17.0 15.2 87 1.3 N 11 19 6 10 1013.1 - 2.4
17/03:18am 17.5 17.1 15.1 86 1.4 N 11 19 6 10 1013.2 - 2.4
17/03:06am 17.7 16.6 14.4 81 1.9 NNE 13 20 7 11 1013.0 - 1.8
17/03:00am 18.2 17.6 13.6 74 2.6 NW 9 19 5 10 1013.3 - 1.4
17/02:30am 18.4 15.4 11.9 66 3.6 NE 19 32 10 17 1012.5 1012.5 1.0
17/02:00am 18.4 15.2 11.2 63 3.9 N 19 26 10 14 1012.6 - 1.0
17/01:30am 18.3 14.6 10.2 59 4.3 N 20 46 11 25 1012.2 - 1.0
17/01:00am 17.5 13.8 12.8 74 2.6 N 24 48 13 26 1012.4 - 1.0
17/12:30am 18.8 17.5 15.8 83 1.8 NW 17 30 9 16 1014.0 - 0.8
17/12:00am 19.8 18.0 15.6 77 2.5 NW 19 28 10 15 1014.3 - 0.2
 
Date/Time
EST
Temp
°C
App
Temp
°C
Dew
Point
Rel
Hum
%
Delta-T
°C
Wind Press
QNH
hPa
Press
MSL
hPa
Rain
since 9 am
mm
Dir
 
Spd
km/h
Gust
km/h
Spd
kts
Gust
kts
16/11:30pm 19.8 18.1 14.8 73 2.9 NNW 17 33 9 18 1014.4 1014.4 0.2
16/11:28pm 19.7 18.1 14.9 74 2.8 NNW 17 33 9 18 1014.4 - 0.2
16/11:09pm 19.5 18.7 15.2 76 2.5 N 13 26 7 14 1014.2 - 0.2
16/11:00pm 19.6 18.9 15.4 77 2.5 NNW 13 20 7 11 1014.1 - 0.2
16/10:30pm 19.4 18.4 15.7 79 2.2 N 15 26 8 14 1014.2 - 0.2
16/10:00pm 19.4 18.8 15.7 79 2.2 NNW 13 26 7 14 1014.4 - 0.2
16/09:30pm 19.4 19.2 15.7 79 2.2 NNE 11 20 6 11 1014.2 - 0.2
16/09:00pm 19.3 19.3 15.2 77 2.4 ENE 9 15 5 8 1014.1 - 0.2
16/08:30pm 19.3 19.4 14.5 74 2.8 ENE 7 13 4 7 1014.2 1014.2 0.2
16/08:00pm 19.4 18.6 15.1 76 2.5 NNE 13 20 7 11 1014.1 - 0.2
16/07:30pm 19.1 18.8 15.4 79 2.2 NE 11 15 6 8 1013.8 - 0.2
16/07:00pm 19.0 20.4 15.4 79 2.1 N 2 11 1 6 1014.3 - 0.2
16/06:30pm 19.3 20.2 15.2 77 2.4 E 4 7 2 4 1014.1 - 0.2
16/06:00pm 19.4 19.7 15.1 76 2.5 NW 7 17 4 9 1013.9 - 0.2
16/05:30pm 19.5 19.5 15.2 76 2.5 NNW 9 19 5 10 1014.1 1014.1 0.2
16/05:00pm 19.6 19.2 15.2 76 2.6 NW 11 17 6 9 1014.4 - 0.2
16/04:30pm 19.8 19.0 15.2 75 2.7 NW 13 22 7 12 1014.4 - 0.2
16/04:00pm 20.1 19.7 15.2 73 2.9 WNW 11 19 6 10 1014.4 - 0.2
16/03:30pm 20.1 19.4 15.4 74 2.8 WNW 13 20 7 11 1014.3 - 0.2
16/03:00pm 20.2 19.8 15.1 72 3.0 WNW 11 20 6 11 1014.2 - 0.2
16/02:30pm 20.6 20.0 15.7 73 2.9 NW 13 22 7 12 1014.3 1014.3 0.2
16/02:00pm 20.5 19.3 16.0 75 2.7 WNW 17 26 9 14 1014.3 - 0.2
16/01:30pm 20.8 19.2 16.0 74 2.9 WNW 19 28 10 15 1014.5 - 0.2
16/01:20pm 21.3 18.7 16.0 72 3.2 W 24 30 13 16 1014.7 - 0.2
16/01:00pm 20.6 18.0 15.9 74 2.8 W 24 35 13 19 1014.7 - 0.2
16/12:56pm 20.2 18.4 16.0 77 2.5 W 20 35 11 19 1014.8 - 0.2
16/12:30pm 20.7 21.4 15.5 72 3.1 NE 6 11 3 6 1015.0 - 0.2
16/12:00pm 18.9 18.1 15.1 78 2.2 NE 13 15 7 8 1015.7 - 0.2
16/11:30am 19.3 18.0 15.8 80 2.1 NE 17 19 9 10 1016.0 1016.0 0.2
16/11:00am 19.6 18.5 16.4 82 1.9 NE 17 20 9 11 1016.4 - 0.2
16/10:30am 19.3 18.2 15.2 77 2.4 ENE 15 17 8 9 1016.7 - 0.2
16/10:00am 19.6 17.7 15.2 76 2.6 ENE 19 22 10 12 1017.1 - 0.2
16/09:30am 19.3 17.2 14.7 74 2.7 ENE 19 22 10 12 1017.3 - 0.0
16/09:00am 18.7 16.5 14.9 78 2.2 ENE 20 24 11 13 1017.5 - 0.0
16/08:30am 18.3 15.8 14.1 76 2.4 ENE 20 24 11 13 1017.5 1017.5 3.0
16/08:00am 17.6 15.2 13.9 79 2.1 ENE 19 22 10 12 1017.3 - 3.0
16/07:30am 17.5 15.3 13.4 77 2.3 E 17 20 9 11 1017.1 - 3.0
16/07:00am 17.4 15.3 13.7 79 2.1 E 17 22 9 12 1017.2 - 3.0
16/06:30am 17.1 14.9 13.4 79 2.1 E 17 20 9 11 1017.3 - 3.0
16/06:00am 16.9 14.5 13.7 81 1.8 E 19 24 10 13 1016.9 - 3.0
16/05:30am 16.3 14.5 13.4 83 1.6 E 15 20 8 11 1016.6 1016.6 3.0
16/05:00am 16.3 14.3 13.8 85 1.4 ESE 17 22 9 12 1016.3 - 3.0
16/04:30am 16.4 15.2 13.9 85 1.4 ESE 13 19 7 10 1016.2 - 3.0
16/04:00am 16.5 15.3 14.0 85 1.4 ESE 13 20 7 11 1016.2 - 3.0
16/03:30am 16.4 15.5 13.7 84 1.5 ESE 11 15 6 8 1016.0 - 3.0
16/03:00am 15.6 17.1 14.7 94 0.5 CALM 0 0 0 0 1016.0 - 3.0
16/02:52am 15.7 17.1 14.5 93 0.7 CALM 0 0 0 0 1015.9 - 3.0
16/02:37am 15.9 16.5 14.3 90 0.9 S 4 7 2 4 1015.9 - 3.0
16/02:30am 16.1 16.7 14.2 88 1.1 S 4 7 2 4 1015.9 1015.9 3.0
16/02:28am 15.8 16.5 14.6 93 0.7 SW 4 7 2 4 1015.9 - 3.0
16/02:13am 15.9 16.6 14.5 91 0.8 NW 4 7 2 4 1016.1 - 3.0
16/02:00am 15.7 16.8 14.5 93 0.7 S 2 6 1 3 1016.1 - 3.0
16/01:30am 15.8 16.1 14.6 93 0.7 WSW 6 9 3 5 1016.3 - 3.0
16/01:00am 15.8 15.9 14.0 89 1.0 WSW 6 7 3 4 1016.4 - 3.0
16/12:30am 15.7 16.0 14.5 93 0.7 WSW 6 9 3 5 1016.8 - 3.0
16/12:00am 14.9 16.2 14.2 96 0.4 CALM 0 0 0 0 1017.0 - 3.0
 
Date/Time
EST
Temp
°C
App
Temp
°C
Dew
Point
Rel
Hum
%
Delta-T
°C
Wind Press
QNH
hPa
Press
MSL
hPa
Rain
since 9 am
mm
Dir
 
Spd
km/h
Gust
km/h
Spd
kts
Gust
kts
15/11:54pm 14.8 16.1 14.1 96 0.4 CALM 0 0 0 0 1017.1 - 3.0
15/11:43pm 14.7 15.6 14.0 96 0.4 ENE 2 7 1 4 1017.3 - 3.0
15/11:30pm 14.2 14.5 13.5 96 0.4 N 4 9 2 5 1017.3 1017.3 3.0
15/11:11pm 12.8 13.5 12.2 96 0.3 CALM 0 0 0 0 1017.2 - 2.8
15/11:00pm 13.1 13.9 12.5 96 0.3 CALM 0 0 0 0 1017.2 - 2.8
15/10:50pm 12.8 13.6 12.4 97 0.2 CALM 0 0 0 0 1017.2 - 2.8
15/10:47pm 12.9 13.6 12.3 96 0.3 CALM 0 0 0 0 1017.3 - 2.8
15/10:31pm 12.7 13.4 12.1 96 0.3 CALM 0 0 0 0 1017.3 - 2.8
15/10:30pm 12.7 13.4 12.1 96 0.3 CALM 0 0 0 0 1017.3 - 2.8
15/10:00pm 12.7 13.4 12.1 96 0.3 CALM 0 0 0 0 1017.6 - 2.8
15/09:52pm 12.7 13.4 12.1 96 0.3 CALM 0 0 0 0 1017.6 - 2.8
15/09:30pm 12.5 13.1 11.9 96 0.3 CALM 0 0 0 0 1017.6 - 2.8
15/09:07pm 12.6 13.4 12.4 99 0.1 CALM 0 0 0 0 1017.6 - 2.8
15/09:00pm 12.7 13.5 12.5 99 0.1 CALM 0 0 0 0 1017.5 - 2.8
15/08:31pm 12.2 12.7 11.6 96 0.3 CALM 0 0 0 0 1017.4 - 2.8
15/08:30pm 12.2 12.7 11.6 96 0.3 CALM 0 0 0 0 1017.4 1017.4 2.8
15/08:28pm 12.2 12.8 11.8 97 0.2 CALM 0 0 0 0 1017.4 - 2.8
15/08:00pm 13.5 13.6 12.8 95 0.4 SSW 4 7 2 4 1017.2 - 2.8
15/07:30pm 13.7 13.4 12.8 94 0.5 SW 6 7 3 4 1017.2 - 2.8
15/07:00pm 13.6 13.4 13.1 97 0.3 SW 6 7 3 4 1016.9 - 2.8

Other Formats:

Comma delimited format used in spreadsheet applications
http://www.bom.gov.au/fwo/IDN60801/IDN60801.94995.axf

JavaScript Object Notation format (JSON) in row-major order
http://www.bom.gov.au/fwo/IDN60801/IDN60801.94995.json